sensor_id;sensor_type;location;lat;lon;timestamp;pressure;altitude;pressure_sealevel;temperature;humidity
32456;BME280;18912;43.270;27.942;2023-07-31T00:02:20;97535.47;;;26.44;67.28
32456;BME280;18912;43.270;27.942;2023-07-31T00:04:45;97531.91;;;26.60;66.61
32456;BME280;18912;43.270;27.942;2023-07-31T00:07:11;97534.84;;;26.64;66.50
32456;BME280;18912;43.270;27.942;2023-07-31T00:09:37;97535.44;;;26.27;68.04
32456;BME280;18912;43.270;27.942;2023-07-31T00:12:02;97533.22;;;26.63;66.44
32456;BME280;18912;43.270;27.942;2023-07-31T00:14:28;97534.50;;;26.57;66.76
32456;BME280;18912;43.270;27.942;2023-07-31T00:16:53;97526.25;;;26.74;65.74
32456;BME280;18912;43.270;27.942;2023-07-31T00:19:19;97533.75;;;26.82;65.04
32456;BME280;18912;43.270;27.942;2023-07-31T00:21:45;97531.13;;;26.77;65.18
32456;BME280;18912;43.270;27.942;2023-07-31T00:24:10;97547.63;;;26.82;65.46
32456;BME280;18912;43.270;27.942;2023-07-31T00:26:36;97543.84;;;26.78;65.50
32456;BME280;18912;43.270;27.942;2023-07-31T00:29:01;97544.25;;;26.37;67.33
32456;BME280;18912;43.270;27.942;2023-07-31T00:31:27;97538.59;;;26.68;66.45
32456;BME280;18912;43.270;27.942;2023-07-31T00:33:53;97540.88;;;26.66;66.41
32456;BME280;18912;43.270;27.942;2023-07-31T00:36:18;97542.88;;;26.74;66.11
32456;BME280;18912;43.270;27.942;2023-07-31T00:38:44;97531.03;;;26.43;67.35
32456;BME280;18912;43.270;27.942;2023-07-31T00:41:09;97530.78;;;26.70;66.28
32456;BME280;18912;43.270;27.942;2023-07-31T00:43:35;97537.88;;;26.37;67.82
32456;BME280;18912;43.270;27.942;2023-07-31T00:46:00;97534.81;;;26.47;67.37
32456;BME280;18912;43.270;27.942;2023-07-31T00:48:26;97543.50;;;26.71;66.49
32456;BME280;18912;43.270;27.942;2023-07-31T00:50:52;97538.16;;;26.74;66.15
32456;BME280;18912;43.270;27.942;2023-07-31T00:53:17;97533.88;;;26.68;66.27
32456;BME280;18912;43.270;27.942;2023-07-31T00:55:43;97531.78;;;26.91;65.45
32456;BME280;18912;43.270;27.942;2023-07-31T00:58:10;97542.06;;;26.82;65.82
32456;BME280;18912;43.270;27.942;2023-07-31T01:00:35;97546.31;;;26.79;66.25
32456;BME280;18912;43.270;27.942;2023-07-31T01:03:01;97547.25;;;26.75;66.36
32456;BME280;18912;43.270;27.942;2023-07-31T01:05:39;97544.19;;;26.85;65.97
32456;BME280;18912;43.270;27.942;2023-07-31T01:08:29;97538.66;;;26.76;66.73
32456;BME280;18912;43.270;27.942;2023-07-31T01:11:04;97545.44;;;26.62;67.12
32456;BME280;18912;43.270;27.942;2023-07-31T01:13:32;97532.94;;;26.99;65.45
32456;BME280;18912;43.270;27.942;2023-07-31T01:15:58;97540.75;;;26.97;65.60
32456;BME280;18912;43.270;27.942;2023-07-31T01:18:24;97542.06;;;26.91;65.72
32456;BME280;18912;43.270;27.942;2023-07-31T01:21:03;97548.41;;;26.83;66.09
32456;BME280;18912;43.270;27.942;2023-07-31T01:23:36;97553.00;;;27.04;65.44
32456;BME280;18912;43.270;27.942;2023-07-31T01:26:13;97548.75;;;27.15;64.82
32456;BME280;18912;43.270;27.942;2023-07-31T01:31:25;97547.75;;;26.77;66.75
32456;BME280;18912;43.270;27.942;2023-07-31T01:33:53;97545.94;;;26.55;67.43
32456;BME280;18912;43.270;27.942;2023-07-31T01:36:19;97560.66;;;26.99;65.49
32456;BME280;18912;43.270;27.942;2023-07-31T01:38:45;97559.34;;;26.79;66.35
32456;BME280;18912;43.270;27.942;2023-07-31T01:41:11;97552.28;;;26.64;66.43
32456;BME280;18912;43.270;27.942;2023-07-31T01:43:36;97559.00;;;26.80;66.24
32456;BME280;18912;43.270;27.942;2023-07-31T01:46:02;97573.97;;;26.62;66.55
32456;BME280;18912;43.270;27.942;2023-07-31T01:48:27;97564.13;;;26.39;68.21
32456;BME280;18912;43.270;27.942;2023-07-31T01:50:53;97565.56;;;26.93;66.12
32456;BME280;18912;43.270;27.942;2023-07-31T01:53:18;97561.94;;;26.75;66.34
32456;BME280;18912;43.270;27.942;2023-07-31T01:55:44;97565.38;;;26.98;65.49
32456;BME280;18912;43.270;27.942;2023-07-31T01:58:09;97569.94;;;26.94;65.81
32456;BME280;18912;43.270;27.942;2023-07-31T02:00:35;97572.09;;;26.97;65.91
32456;BME280;18912;43.270;27.942;2023-07-31T02:03:00;97557.72;;;27.04;65.23
32456;BME280;18912;43.270;27.942;2023-07-31T02:05:26;97562.28;;;27.17;65.05
32456;BME280;18912;43.270;27.942;2023-07-31T02:07:51;97564.25;;;26.99;65.41
32456;BME280;18912;43.270;27.942;2023-07-31T02:10:17;97570.78;;;27.12;64.95
32456;BME280;18912;43.270;27.942;2023-07-31T02:12:42;97585.44;;;27.21;64.59
32456;BME280;18912;43.270;27.942;2023-07-31T02:15:08;97579.75;;;27.17;64.33
32456;BME280;18912;43.270;27.942;2023-07-31T02:17:34;97580.72;;;27.13;64.19
32456;BME280;18912;43.270;27.942;2023-07-31T02:19:59;97576.66;;;27.10;64.20
32456;BME280;18912;43.270;27.942;2023-07-31T02:22:25;97583.34;;;27.09;64.03
32456;BME280;18912;43.270;27.942;2023-07-31T02:24:50;97569.16;;;27.11;63.27
32456;BME280;18912;43.270;27.942;2023-07-31T02:27:16;97581.72;;;27.08;62.95
32456;BME280;18912;43.270;27.942;2023-07-31T02:29:41;97568.19;;;27.07;62.52
32456;BME280;18912;43.270;27.942;2023-07-31T02:32:07;97573.22;;;26.96;62.62
32456;BME280;18912;43.270;27.942;2023-07-31T02:34:32;97580.25;;;26.94;62.42
32456;BME280;18912;43.270;27.942;2023-07-31T02:36:58;97582.19;;;26.93;62.16
32456;BME280;18912;43.270;27.942;2023-07-31T02:39:23;97583.16;;;26.89;62.26
32456;BME280;18912;43.270;27.942;2023-07-31T02:41:49;97580.56;;;26.84;62.06
32456;BME280;18912;43.270;27.942;2023-07-31T02:44:14;97571.22;;;26.71;61.77
32456;BME280;18912;43.270;27.942;2023-07-31T02:46:40;97585.59;;;26.73;62.28
32456;BME280;18912;43.270;27.942;2023-07-31T02:49:05;97582.44;;;26.66;62.02
32456;BME280;18912;43.270;27.942;2023-07-31T02:51:31;97571.53;;;26.61;62.44
32456;BME280;18912;43.270;27.942;2023-07-31T02:53:56;97568.50;;;26.32;63.68
32456;BME280;18912;43.270;27.942;2023-07-31T02:56:22;97566.84;;;26.14;64.21
32456;BME280;18912;43.270;27.942;2023-07-31T02:58:47;97567.84;;;26.35;63.15
32456;BME280;18912;43.270;27.942;2023-07-31T03:01:13;97571.56;;;26.22;62.91
32456;BME280;18912;43.270;27.942;2023-07-31T03:03:38;97576.84;;;26.01;63.27
32456;BME280;18912;43.270;27.942;2023-07-31T03:06:04;97587.28;;;26.04;63.01
32456;BME280;18912;43.270;27.942;2023-07-31T03:08:29;97585.44;;;25.91;63.37
32456;BME280;18912;43.270;27.942;2023-07-31T03:10:56;97579.69;;;25.57;64.42
32456;BME280;18912;43.270;27.942;2023-07-31T03:13:22;97584.44;;;25.87;63.37
32456;BME280;18912;43.270;27.942;2023-07-31T03:15:48;97578.59;;;25.88;62.51
32456;BME280;18912;43.270;27.942;2023-07-31T03:18:14;97596.69;;;25.95;62.50
32456;BME280;18912;43.270;27.942;2023-07-31T03:20:43;97600.69;;;26.11;62.02
32456;BME280;18912;43.270;27.942;2023-07-31T03:23:09;97593.72;;;26.13;62.39
32456;BME280;18912;43.270;27.942;2023-07-31T03:25:34;97595.50;;;26.18;62.49
32456;BME280;18912;43.270;27.942;2023-07-31T03:28:00;97595.09;;;26.33;62.47
32456;BME280;18912;43.270;27.942;2023-07-31T03:30:26;97591.00;;;26.39;62.87
32456;BME280;18912;43.270;27.942;2023-07-31T03:32:52;97589.41;;;26.46;63.08
32456;BME280;18912;43.270;27.942;2023-07-31T03:35:17;97587.16;;;26.57;62.86
32456;BME280;18912;43.270;27.942;2023-07-31T03:37:43;97591.78;;;26.70;62.80
32456;BME280;18912;43.270;27.942;2023-07-31T03:40:09;97593.75;;;26.78;62.73
32456;BME280;18912;43.270;27.942;2023-07-31T03:42:35;97582.34;;;26.88;62.49
32456;BME280;18912;43.270;27.942;2023-07-31T03:45:00;97592.81;;;27.08;62.33
32456;BME280;18912;43.270;27.942;2023-07-31T03:47:26;97588.06;;;27.17;61.91
32456;BME280;18912;43.270;27.942;2023-07-31T03:49:52;97589.88;;;27.22;61.96
32456;BME280;18912;43.270;27.942;2023-07-31T03:52:17;97574.84;;;27.23;61.84
32456;BME280;18912;43.270;27.942;2023-07-31T03:54:43;97591.03;;;27.38;61.66
32456;BME280;18912;43.270;27.942;2023-07-31T03:57:10;97601.66;;;27.44;61.76
32456;BME280;18912;43.270;27.942;2023-07-31T03:59:35;97593.47;;;27.48;61.22
32456;BME280;18912;43.270;27.942;2023-07-31T04:02:01;97595.72;;;27.54;61.34
32456;BME280;18912;43.270;27.942;2023-07-31T04:04:26;97587.88;;;27.56;61.25
32456;BME280;18912;43.270;27.942;2023-07-31T04:06:52;97593.09;;;27.66;61.14
32456;BME280;18912;43.270;27.942;2023-07-31T04:09:17;97594.09;;;27.70;60.96
32456;BME280;18912;43.270;27.942;2023-07-31T04:11:43;97584.91;;;27.79;60.62
32456;BME280;18912;43.270;27.942;2023-07-31T04:14:08;97596.00;;;27.96;60.36
32456;BME280;18912;43.270;27.942;2023-07-31T04:16:34;97596.31;;;28.03;60.42
32456;BME280;18912;43.270;27.942;2023-07-31T04:19:00;97599.88;;;28.12;60.40
32456;BME280;18912;43.270;27.942;2023-07-31T04:21:25;97605.66;;;28.36;60.20
32456;BME280;18912;43.270;27.942;2023-07-31T04:23:51;97599.06;;;28.49;59.61
32456;BME280;18912;43.270;27.942;2023-07-31T04:26:17;97587.56;;;28.59;58.48
32456;BME280;18912;43.270;27.942;2023-07-31T04:28:42;97596.81;;;28.72;57.82
32456;BME280;18912;43.270;27.942;2023-07-31T04:31:08;97598.41;;;28.81;57.37
32456;BME280;18912;43.270;27.942;2023-07-31T04:33:34;97599.63;;;28.92;57.00
32456;BME280;18912;43.270;27.942;2023-07-31T04:35:59;97592.97;;;29.05;56.08
32456;BME280;18912;43.270;27.942;2023-07-31T04:38:25;97594.28;;;29.08;55.46
32456;BME280;18912;43.270;27.942;2023-07-31T04:40:50;97597.97;;;29.20;55.44
32456;BME280;18912;43.270;27.942;2023-07-31T04:43:16;97597.44;;;29.27;54.32
32456;BME280;18912;43.270;27.942;2023-07-31T04:45:46;97599.19;;;29.31;53.45
32456;BME280;18912;43.270;27.942;2023-07-31T04:48:15;97610.31;;;29.31;53.33
32456;BME280;18912;43.270;27.942;2023-07-31T04:50:41;97604.56;;;29.36;53.13
32456;BME280;18912;43.270;27.942;2023-07-31T04:53:06;97618.66;;;29.31;53.11
32456;BME280;18912;43.270;27.942;2023-07-31T04:55:32;97610.41;;;29.23;53.06
32456;BME280;18912;43.270;27.942;2023-07-31T04:57:58;97611.69;;;29.25;53.04
32456;BME280;18912;43.270;27.942;2023-07-31T05:00:24;97618.41;;;29.24;53.35
32456;BME280;18912;43.270;27.942;2023-07-31T05:02:50;97620.78;;;29.34;53.42
32456;BME280;18912;43.270;27.942;2023-07-31T05:05:15;97622.00;;;29.45;53.59
32456;BME280;18912;43.270;27.942;2023-07-31T05:07:41;97624.75;;;29.66;52.82
32456;BME280;18912;43.270;27.942;2023-07-31T05:10:06;97619.63;;;29.89;52.10
32456;BME280;18912;43.270;27.942;2023-07-31T05:12:32;97626.91;;;30.14;51.29
32456;BME280;18912;43.270;27.942;2023-07-31T05:14:57;97628.47;;;30.35;50.65
32456;BME280;18912;43.270;27.942;2023-07-31T05:17:23;97632.56;;;30.50;48.56
32456;BME280;18912;43.270;27.942;2023-07-31T05:19:48;97628.03;;;30.70;47.84
32456;BME280;18912;43.270;27.942;2023-07-31T05:22:14;97625.50;;;30.89;47.04
32456;BME280;18912;43.270;27.942;2023-07-31T05:24:40;97631.66;;;30.94;45.83
32456;BME280;18912;43.270;27.942;2023-07-31T05:27:05;97640.72;;;30.91;45.54
32456;BME280;18912;43.270;27.942;2023-07-31T05:29:31;97627.16;;;31.17;45.59
32456;BME280;18912;43.270;27.942;2023-07-31T05:31:56;97637.94;;;31.55;45.85
32456;BME280;18912;43.270;27.942;2023-07-31T05:34:22;97632.22;;;31.52;45.38
32456;BME280;18912;43.270;27.942;2023-07-31T05:36:49;97637.53;;;31.96;44.59
32456;BME280;18912;43.270;27.942;2023-07-31T05:39:14;97646.50;;;31.90;44.78
32456;BME280;18912;43.270;27.942;2023-07-31T05:41:40;97636.13;;;32.34;44.53
32456;BME280;18912;43.270;27.942;2023-07-31T05:44:05;97641.41;;;32.66;43.93
32456;BME280;18912;43.270;27.942;2023-07-31T05:46:30;97651.88;;;33.00;42.55
32456;BME280;18912;43.270;27.942;2023-07-31T05:48:56;97656.72;;;33.19;41.91
32456;BME280;18912;43.270;27.942;2023-07-31T05:51:22;97646.56;;;32.95;42.05
32456;BME280;18912;43.270;27.942;2023-07-31T05:53:47;97643.78;;;32.95;41.51
32456;BME280;18912;43.270;27.942;2023-07-31T05:56:13;97652.41;;;33.41;41.88
32456;BME280;18912;43.270;27.942;2023-07-31T05:58:38;97660.63;;;33.68;41.48
32456;BME280;18912;43.270;27.942;2023-07-31T06:01:04;97648.47;;;33.80;41.05
32456;BME280;18912;43.270;27.942;2023-07-31T06:03:29;97642.28;;;33.90;40.59
32456;BME280;18912;43.270;27.942;2023-07-31T06:05:55;97639.34;;;33.64;40.53
32456;BME280;18912;43.270;27.942;2023-07-31T06:08:21;97637.50;;;33.71;41.18
32456;BME280;18912;43.270;27.942;2023-07-31T06:10:46;97654.22;;;33.49;41.22
32456;BME280;18912;43.270;27.942;2023-07-31T06:13:12;97651.06;;;33.50;41.42
32456;BME280;18912;43.270;27.942;2023-07-31T06:15:37;97655.63;;;33.77;41.59
32456;BME280;18912;43.270;27.942;2023-07-31T06:18:03;97653.00;;;34.04;40.80
32456;BME280;18912;43.270;27.942;2023-07-31T06:20:31;97662.75;;;34.51;40.36
32456;BME280;18912;43.270;27.942;2023-07-31T06:22:56;97661.75;;;34.21;40.42
32456;BME280;18912;43.270;27.942;2023-07-31T06:25:22;97661.38;;;34.45;39.86
32456;BME280;18912;43.270;27.942;2023-07-31T06:27:47;97658.34;;;34.12;40.43
32456;BME280;18912;43.270;27.942;2023-07-31T06:30:13;97671.13;;;34.29;40.15
32456;BME280;18912;43.270;27.942;2023-07-31T06:32:38;97666.97;;;34.64;40.11
32456;BME280;18912;43.270;27.942;2023-07-31T06:35:06;97670.66;;;34.68;39.36
32456;BME280;18912;43.270;27.942;2023-07-31T06:37:32;97670.44;;;34.80;38.98
32456;BME280;18912;43.270;27.942;2023-07-31T06:39:58;97680.06;;;34.79;39.32
32456;BME280;18912;43.270;27.942;2023-07-31T06:42:23;97684.69;;;34.91;39.13
32456;BME280;18912;43.270;27.942;2023-07-31T06:44:49;97677.94;;;34.73;39.15
32456;BME280;18912;43.270;27.942;2023-07-31T06:47:14;97673.13;;;34.73;39.74
32456;BME280;18912;43.270;27.942;2023-07-31T06:49:40;97671.66;;;34.79;39.45
32456;BME280;18912;43.270;27.942;2023-07-31T06:52:06;97679.59;;;34.97;38.69
32456;BME280;18912;43.270;27.942;2023-07-31T06:54:31;97678.84;;;35.26;38.77
32456;BME280;18912;43.270;27.942;2023-07-31T06:56:57;97679.94;;;35.44;37.84
32456;BME280;18912;43.270;27.942;2023-07-31T06:59:23;97670.59;;;35.40;38.29
32456;BME280;18912;43.270;27.942;2023-07-31T07:01:48;97676.00;;;34.77;39.28
32456;BME280;18912;43.270;27.942;2023-07-31T07:04:14;97681.44;;;35.12;38.98
32456;BME280;18912;43.270;27.942;2023-07-31T07:06:40;97682.78;;;35.21;39.13
32456;BME280;18912;43.270;27.942;2023-07-31T07:09:05;97674.41;;;35.25;38.78
32456;BME280;18912;43.270;27.942;2023-07-31T07:11:31;97681.59;;;35.78;37.69
32456;BME280;18912;43.270;27.942;2023-07-31T07:13:56;97677.81;;;36.26;37.16
32456;BME280;18912;43.270;27.942;2023-07-31T07:16:22;97682.44;;;36.12;36.79
32456;BME280;18912;43.270;27.942;2023-07-31T07:18:47;97686.28;;;36.67;36.31
32456;BME280;18912;43.270;27.942;2023-07-31T07:21:13;97681.16;;;36.76;36.04
32456;BME280;18912;43.270;27.942;2023-07-31T07:23:42;97676.16;;;36.58;36.34
32456;BME280;18912;43.270;27.942;2023-07-31T07:26:07;97681.50;;;36.34;36.56
32456;BME280;18912;43.270;27.942;2023-07-31T07:28:33;97684.53;;;36.95;35.94
32456;BME280;18912;43.270;27.942;2023-07-31T07:30:58;97682.97;;;36.98;35.12
32456;BME280;18912;43.270;27.942;2023-07-31T07:33:24;97678.66;;;37.14;35.49
32456;BME280;18912;43.270;27.942;2023-07-31T07:35:50;97681.44;;;36.30;36.16
32456;BME280;18912;43.270;27.942;2023-07-31T07:38:15;97675.44;;;36.69;36.01
32456;BME280;18912;43.270;27.942;2023-07-31T07:40:41;97671.03;;;37.15;35.66
32456;BME280;18912;43.270;27.942;2023-07-31T07:43:06;97685.19;;;37.25;35.65
32456;BME280;18912;43.270;27.942;2023-07-31T07:45:32;97683.19;;;37.26;35.70
32456;BME280;18912;43.270;27.942;2023-07-31T07:47:58;97694.81;;;37.75;34.62
32456;BME280;18912;43.270;27.942;2023-07-31T07:50:24;97679.75;;;38.25;33.63
32456;BME280;18912;43.270;27.942;2023-07-31T07:52:50;97684.22;;;38.51;33.02
32456;BME280;18912;43.270;27.942;2023-07-31T07:55:15;97669.78;;;38.81;32.54
32456;BME280;18912;43.270;27.942;2023-07-31T07:57:41;97687.16;;;39.32;31.78
32456;BME280;18912;43.270;27.942;2023-07-31T08:00:07;97679.47;;;39.26;32.17
32456;BME280;18912;43.270;27.942;2023-07-31T08:02:32;97681.59;;;37.90;33.96
32456;BME280;18912;43.270;27.942;2023-07-31T08:04:58;97684.72;;;38.67;32.64
32456;BME280;18912;43.270;27.942;2023-07-31T08:07:23;97675.03;;;39.07;32.69
32456;BME280;18912;43.270;27.942;2023-07-31T08:09:49;97681.03;;;39.72;31.11
32456;BME280;18912;43.270;27.942;2023-07-31T08:12:15;97678.06;;;40.11;30.37
32456;BME280;18912;43.270;27.942;2023-07-31T08:14:40;97688.38;;;39.10;31.95
32456;BME280;18912;43.270;27.942;2023-07-31T08:17:06;97685.88;;;38.49;32.68
32456;BME280;18912;43.270;27.942;2023-07-31T08:19:31;97695.09;;;38.42;32.49
32456;BME280;18912;43.270;27.942;2023-07-31T08:21:57;97690.78;;;39.01;32.16
32456;BME280;18912;43.270;27.942;2023-07-31T08:24:22;97696.84;;;39.52;30.81
32456;BME280;18912;43.270;27.942;2023-07-31T08:26:48;97684.63;;;39.83;30.30
32456;BME280;18912;43.270;27.942;2023-07-31T08:29:13;97686.28;;;39.74;30.74
32456;BME280;18912;43.270;27.942;2023-07-31T08:31:39;97693.88;;;40.01;29.72
32456;BME280;18912;43.270;27.942;2023-07-31T08:34:04;97687.47;;;39.83;30.63
32456;BME280;18912;43.270;27.942;2023-07-31T08:36:30;97691.03;;;40.12;30.10
32456;BME280;18912;43.270;27.942;2023-07-31T08:38:56;97694.44;;;40.55;30.24
32456;BME280;18912;43.270;27.942;2023-07-31T08:41:21;97699.38;;;40.33;30.07
32456;BME280;18912;43.270;27.942;2023-07-31T08:43:47;97697.66;;;40.57;29.80
32456;BME280;18912;43.270;27.942;2023-07-31T08:46:14;97690.78;;;39.29;29.82
32456;BME280;18912;43.270;27.942;2023-07-31T08:48:43;97690.81;;;39.11;31.05
32456;BME280;18912;43.270;27.942;2023-07-31T08:51:09;97698.84;;;39.45;30.70
32456;BME280;18912;43.270;27.942;2023-07-31T08:53:35;97699.69;;;39.10;31.37
32456;BME280;18912;43.270;27.942;2023-07-31T08:56:01;97689.56;;;39.23;31.12
32456;BME280;18912;43.270;27.942;2023-07-31T08:58:31;97701.31;;;39.14;31.47
32456;BME280;18912;43.270;27.942;2023-07-31T09:00:58;97692.38;;;38.74;32.06
32456;BME280;18912;43.270;27.942;2023-07-31T09:03:26;97699.16;;;37.08;34.20
32456;BME280;18912;43.270;27.942;2023-07-31T09:05:53;97706.78;;;37.58;34.24
32456;BME280;18912;43.270;27.942;2023-07-31T09:08:21;97690.50;;;36.46;34.01
32456;BME280;18912;43.270;27.942;2023-07-31T09:10:47;97691.25;;;35.25;35.42
32456;BME280;18912;43.270;27.942;2023-07-31T09:13:15;97699.69;;;34.99;36.37
32456;BME280;18912;43.270;27.942;2023-07-31T09:15:42;97693.31;;;35.84;36.20
32456;BME280;18912;43.270;27.942;2023-07-31T09:18:08;97694.75;;;36.00;36.80
32456;BME280;18912;43.270;27.942;2023-07-31T09:20:34;97710.72;;;35.37;37.19
32456;BME280;18912;43.270;27.942;2023-07-31T09:25:33;97696.72;;;34.27;37.84
32456;BME280;18912;43.270;27.942;2023-07-31T09:28:16;97651.75;;;34.65;37.99
32456;BME280;18912;43.270;27.942;2023-07-31T09:30:49;97707.72;;;35.26;37.19
32456;BME280;18912;43.270;27.942;2023-07-31T09:33:15;97707.03;;;35.33;37.55
32456;BME280;18912;43.270;27.942;2023-07-31T09:35:41;97716.69;;;35.58;37.91
32456;BME280;18912;43.270;27.942;2023-07-31T09:38:09;97710.06;;;34.53;38.60
32456;BME280;18912;43.270;27.942;2023-07-31T09:40:40;97705.75;;;34.17;38.51
32456;BME280;18912;43.270;27.942;2023-07-31T09:43:07;97708.34;;;35.39;37.96
32456;BME280;18912;43.270;27.942;2023-07-31T09:45:41;97711.03;;;36.17;36.20
32456;BME280;18912;43.270;27.942;2023-07-31T09:48:12;97710.84;;;34.95;37.97
32456;BME280;18912;43.270;27.942;2023-07-31T09:50:42;97706.56;;;35.83;36.87
32456;BME280;18912;43.270;27.942;2023-07-31T09:53:08;97708.66;;;35.34;37.35
32456;BME280;18912;43.270;27.942;2023-07-31T09:55:35;97699.00;;;35.87;36.99
32456;BME280;18912;43.270;27.942;2023-07-31T09:58:06;97705.53;;;36.24;36.23
32456;BME280;18912;43.270;27.942;2023-07-31T10:00:33;97704.47;;;35.47;36.90
32456;BME280;18912;43.270;27.942;2023-07-31T10:03:00;97700.91;;;35.80;36.53
32456;BME280;18912;43.270;27.942;2023-07-31T10:08:03;97701.44;;;35.59;36.68
32456;BME280;18912;43.270;27.942;2023-07-31T10:10:29;97696.50;;;35.26;36.86
32456;BME280;18912;43.270;27.942;2023-07-31T10:12:56;97692.78;;;35.45;36.20
32456;BME280;18912;43.270;27.942;2023-07-31T10:15:23;97697.41;;;36.19;36.34
32456;BME280;18912;43.270;27.942;2023-07-31T10:17:49;97703.09;;;36.59;35.79
32456;BME280;18912;43.270;27.942;2023-07-31T10:20:16;97706.56;;;36.83;35.34
32456;BME280;18912;43.270;27.942;2023-07-31T10:22:44;97705.50;;;36.98;35.73
32456;BME280;18912;43.270;27.942;2023-07-31T10:25:13;97698.16;;;36.86;35.04
32456;BME280;18912;43.270;27.942;2023-07-31T10:27:40;97696.88;;;36.84;35.49
32456;BME280;18912;43.270;27.942;2023-07-31T10:30:09;97705.00;;;36.85;35.65
32456;BME280;18912;43.270;27.942;2023-07-31T10:32:38;97708.09;;;36.77;36.09
32456;BME280;18912;43.270;27.942;2023-07-31T10:35:06;97709.25;;;37.16;35.76
32456;BME280;18912;43.270;27.942;2023-07-31T10:37:41;97712.75;;;36.99;35.62
32456;BME280;18912;43.270;27.942;2023-07-31T10:40:19;97711.25;;;37.66;34.47
32456;BME280;18912;43.270;27.942;2023-07-31T10:42:54;97713.06;;;37.34;34.16
32456;BME280;18912;43.270;27.942;2023-07-31T10:45:42;97705.16;;;38.22;33.57
32456;BME280;18912;43.270;27.942;2023-07-31T10:48:15;97715.47;;;37.93;33.67
32456;BME280;18912;43.270;27.942;2023-07-31T10:50:48;97706.09;;;37.75;33.69
32456;BME280;18912;43.270;27.942;2023-07-31T10:53:29;97710.41;;;38.30;32.94
32456;BME280;18912;43.270;27.942;2023-07-31T10:55:58;97709.75;;;37.76;33.32
32456;BME280;18912;43.270;27.942;2023-07-31T10:58:24;97705.38;;;37.89;33.51
32456;BME280;18912;43.270;27.942;2023-07-31T11:00:55;97705.44;;;38.03;33.22
32456;BME280;18912;43.270;27.942;2023-07-31T11:03:25;97703.06;;;38.15;33.49
32456;BME280;18912;43.270;27.942;2023-07-31T11:06:02;97694.59;;;38.15;32.95
32456;BME280;18912;43.270;27.942;2023-07-31T11:08:33;97704.59;;;37.95;33.91
32456;BME280;18912;43.270;27.942;2023-07-31T11:13:32;97699.03;;;37.44;34.25
32456;BME280;18912;43.270;27.942;2023-07-31T11:15:58;97697.47;;;36.59;34.68
32456;BME280;18912;43.270;27.942;2023-07-31T11:18:26;97691.06;;;36.26;35.51
32456;BME280;18912;43.270;27.942;2023-07-31T11:20:52;97693.25;;;36.39;35.54
32456;BME280;18912;43.270;27.942;2023-07-31T11:23:19;97690.66;;;36.61;35.21
32456;BME280;18912;43.270;27.942;2023-07-31T11:25:44;97683.13;;;36.72;35.17
32456;BME280;18912;43.270;27.942;2023-07-31T11:28:15;97676.66;;;36.34;35.49
32456;BME280;18912;43.270;27.942;2023-07-31T11:30:42;97674.09;;;36.55;36.35
32456;BME280;18912;43.270;27.942;2023-07-31T11:33:09;97671.56;;;36.07;36.66
32456;BME280;18912;43.270;27.942;2023-07-31T11:35:45;97666.31;;;35.76;37.11
32456;BME280;18912;43.270;27.942;2023-07-31T11:38:12;97673.41;;;36.29;36.84
32456;BME280;18912;43.270;27.942;2023-07-31T11:40:47;97663.84;;;36.74;36.04
32456;BME280;18912;43.270;27.942;2023-07-31T11:43:12;97669.38;;;36.26;35.56
32456;BME280;18912;43.270;27.942;2023-07-31T11:45:45;97661.72;;;36.64;35.73
32456;BME280;18912;43.270;27.942;2023-07-31T11:48:19;97651.75;;;36.36;36.40
32456;BME280;18912;43.270;27.942;2023-07-31T11:50:45;97654.16;;;36.34;35.80
32456;BME280;18912;43.270;27.942;2023-07-31T11:53:12;97654.16;;;36.34;35.43
32456;BME280;18912;43.270;27.942;2023-07-31T11:55:38;97667.59;;;36.48;35.64
32456;BME280;18912;43.270;27.942;2023-07-31T11:58:04;97657.13;;;36.45;36.26
32456;BME280;18912;43.270;27.942;2023-07-31T12:00:30;97651.94;;;36.50;35.42
32456;BME280;18912;43.270;27.942;2023-07-31T12:02:56;97657.59;;;35.84;35.71
32456;BME280;18912;43.270;27.942;2023-07-31T12:05:22;97663.47;;;34.29;38.29
32456;BME280;18912;43.270;27.942;2023-07-31T12:07:53;97665.25;;;34.37;37.98
32456;BME280;18912;43.270;27.942;2023-07-31T12:13:04;97657.06;;;34.06;39.52
32456;BME280;18912;43.270;27.942;2023-07-31T12:17:59;97656.75;;;34.34;38.76
32456;BME280;18912;43.270;27.942;2023-07-31T12:20:25;97652.69;;;34.31;38.68
32456;BME280;18912;43.270;27.942;2023-07-31T12:22:50;97648.50;;;34.22;39.37
32456;BME280;18912;43.270;27.942;2023-07-31T12:25:16;97638.66;;;34.50;38.84
32456;BME280;18912;43.270;27.942;2023-07-31T12:27:44;97627.38;;;34.47;38.44
32456;BME280;18912;43.270;27.942;2023-07-31T12:30:29;97641.75;;;34.45;38.87
32456;BME280;18912;43.270;27.942;2023-07-31T12:32:55;97631.94;;;34.13;39.51
32456;BME280;18912;43.270;27.942;2023-07-31T12:35:20;97630.97;;;33.14;40.47
32456;BME280;18912;43.270;27.942;2023-07-31T12:37:46;97639.25;;;33.26;40.66
32456;BME280;18912;43.270;27.942;2023-07-31T12:40:11;97638.41;;;33.06;41.27
32456;BME280;18912;43.270;27.942;2023-07-31T12:42:37;97625.09;;;33.38;41.21
32456;BME280;18912;43.270;27.942;2023-07-31T12:45:03;97629.66;;;33.27;41.53
32456;BME280;18912;43.270;27.942;2023-07-31T12:47:30;97630.41;;;32.58;42.71
32456;BME280;18912;43.270;27.942;2023-07-31T12:49:55;97635.88;;;32.85;43.12
32456;BME280;18912;43.270;27.942;2023-07-31T12:52:21;97636.63;;;32.82;43.83
32456;BME280;18912;43.270;27.942;2023-07-31T12:54:46;97623.50;;;33.02;43.60
32456;BME280;18912;43.270;27.942;2023-07-31T12:57:12;97625.84;;;33.00;43.73
32456;BME280;18912;43.270;27.942;2023-07-31T12:59:37;97633.53;;;33.03;43.58
32456;BME280;18912;43.270;27.942;2023-07-31T13:02:02;97625.44;;;32.82;43.28
32456;BME280;18912;43.270;27.942;2023-07-31T13:04:28;97628.69;;;32.84;42.86